SAS1321 ENAL-ENGM
Flight info
| Callsign | SAS1321 |
|---|---|
| Flight time | N/A |
| Altitude | 29000 |
| Route | GIGIR DCT KEMIV DCT BELGU |
| Aircraft | A320/M-SDE3FGHIJ1RWXYZ/ALB1 |
Departure
| Time | 2026-05-07 20:37 |
|---|---|
| Airport | Ålesund Airport (ENAL) |
Arrival
| Time | N/A |
|---|---|
| Airport | Oslo-Gardermoen International Airport (ENGM) |
| Time | Latitude | Longitude | Altitude | Speed | Heading |
|---|---|---|---|---|---|
| 2026-05-07 20:23 | 62.55872 | 6.11308 | 68 ft | 0 kts | 155° |
| 2026-05-07 20:31 | 62.55874 | 6.11306 | 68 ft | 2 kts | 155° |
| 2026-05-07 20:31 | 62.55897 | 6.11291 | 59 ft | 4 kts | 180° |
| 2026-05-07 20:31 | 62.55921 | 6.11299 | 62 ft | 4 kts | 204° |
| 2026-05-07 20:32 | 62.55944 | 6.11329 | 66 ft | 4 kts | 223° |
| 2026-05-07 20:32 | 62.55950 | 6.11342 | 64 ft | 0 kts | 226° |
| 2026-05-07 20:34 | 62.55941 | 6.11316 | 59 ft | 5 kts | 238° |
| 2026-05-07 20:34 | 62.55913 | 6.11197 | 66 ft | 12 kts | 244° |
| 2026-05-07 20:34 | 62.55904 | 6.10985 | 65 ft | 17 kts | 282° |
| 2026-05-07 20:35 | 62.55941 | 6.10708 | 63 ft | 21 kts | 286° |
| 2026-05-07 20:35 | 62.55907 | 6.10392 | 64 ft | 24 kts | 245° |
| 2026-05-07 20:35 | 62.55829 | 6.10041 | 64 ft | 27 kts | 244° |
| 2026-05-07 20:35 | 62.55743 | 6.09650 | 63 ft | 30 kts | 245° |
| 2026-05-07 20:36 | 62.55673 | 6.09327 | 61 ft | 22 kts | 244° |
| 2026-05-07 20:36 | 62.55594 | 6.09073 | 55 ft | 10 kts | 260° |
| 2026-05-07 20:36 | 62.55614 | 6.09057 | 58 ft | 3 kts | 41° |
| 2026-05-07 20:36 | 62.55629 | 6.09128 | 57 ft | 11 kts | 64° |
| 2026-05-07 20:37 | 62.55781 | 6.09816 | 61 ft | 94 kts | 64° |
| 2026-05-07 20:37 | 62.56163 | 6.11528 | 250 ft | 141 kts | 63° |
| 2026-05-07 20:37 | 62.56577 | 6.13345 | 1166 ft | 129 kts | 64° |
| 2026-05-07 20:37 | 62.56924 | 6.14977 | 1806 ft | 118 kts | 68° |
| 2026-05-07 20:38 | 62.57270 | 6.16878 | 2128 ft | 144 kts | 71° |
| 2026-05-07 20:38 | 62.57565 | 6.18677 | 2888 ft | 118 kts | 74° |
| 2026-05-07 20:38 | 62.57849 | 6.20672 | 2688 ft | 162 kts | 76° |
| 2026-05-07 20:38 | 62.58103 | 6.22735 | 3562 ft | 126 kts | 79° |
| 2026-05-07 20:39 | 62.58316 | 6.24560 | 3932 ft | 136 kts | 77° |
| 2026-05-07 20:39 | 62.58706 | 6.26732 | 4298 ft | 153 kts | 56° |
| 2026-05-07 20:39 | 62.59555 | 6.27945 | 4846 ft | 170 kts | 1° |
| 2026-05-07 20:39 | 62.60591 | 6.26102 | 4143 ft | 239 kts | 294° |
| 2026-05-07 20:40 | 62.61829 | 6.22658 | 1858 ft | 357 kts | 338° |
| 2026-05-07 20:40 | 62.64316 | 6.21428 | 2567 ft | 349 kts | 351° |
| 2026-05-07 20:40 | 62.66544 | 6.20014 | 2890 ft | 331 kts | 321° |
| 2026-05-07 20:40 | 62.68161 | 6.16872 | 4510 ft | 291 kts | 320° |
| 2026-05-07 20:41 | 62.69582 | 6.14339 | 6939 ft | 243 kts | 318° |
| 2026-05-07 20:41 | 62.70798 | 6.12187 | 8991 ft | 208 kts | 318° |
| 2026-05-07 20:41 | 62.71838 | 6.10363 | 10634 ft | 178 kts | 317° |
| 2026-05-07 20:41 | 62.72821 | 6.08646 | 11384 ft | 188 kts | 318° |
| 2026-05-07 20:42 | 62.73911 | 6.06848 | 11838 ft | 209 kts | 321° |
| 2026-05-07 20:42 | 62.75098 | 6.05124 | 12860 ft | 193 kts | 326° |
| 2026-05-07 20:42 | 62.75982 | 6.04172 | 13329 ft | 108 kts | 335° |
| 2026-05-07 20:42 | 62.76684 | 6.03768 | 9740 ft | 62 kts | 336° |
| 2026-05-07 20:43 | 62.76417 | 6.02369 | 15 ft | 0 kts | 224° |
| 2026-05-07 20:43 | 62.76416 | 6.02368 | 1 ft | 0 kts | 224° |